Time;durP1;ratioP1;P1;durP2;ratioP2;P2;SDS_P1;SDS_P2;PMS_P1;PMS_P2;Temp;Humidity;BMP_temperature;BMP_pressure;BME280_temperature;BME280_humidity;BME280_pressure;Samples;Min_cycle;Max_cycle;Signal;HPM_P1;HPM_P2
2021/05/04 00:01:43;;;;;;;7.57;2.50;;;;;;;13.50;39.32;100026.50;4938234;29;20087;-53
2021/05/04 00:04:11;;;;;;;10.10;2.40;;;;;;;13.47;39.39;100021.66;4938386;29;20079;-52
2021/05/04 00:06:38;;;;;;;5.55;2.28;;;;;;;13.31;39.71;100020.34;4938205;29;20044;-51
2021/05/04 00:09:06;;;;;;;2.22;1.92;;;;;;;13.27;40.35;100013.84;4937824;29;20435;-53
2021/05/04 00:11:33;;;;;;;19.15;3.22;;;;;;;13.16;41.43;100002.31;4938184;29;20044;-50
2021/05/04 00:14:01;;;;;;;19.35;3.10;;;;;;;13.25;41.07;99999.66;4938426;29;20051;-56
2021/05/04 00:16:28;;;;;;;16.55;3.20;;;;;;;13.14;42.27;99993.59;4938046;29;20687;-51
2021/05/04 00:18:55;;;;;;;8.23;2.42;;;;;;;13.10;43.32;99996.09;4938075;29;20063;-50
2021/05/04 00:21:22;;;;;;;10.05;2.72;;;;;;;13.03;43.32;99992.16;4937592;29;20391;-49
2021/05/04 00:23:49;;;;;;;11.07;2.38;;;;;;;13.01;44.82;99978.78;4938348;29;20068;-51
2021/05/04 00:26:17;;;;;;;11.07;2.40;;;;;;;13.02;44.63;99972.22;4937925;29;20546;-50
2021/05/04 00:28:44;;;;;;;10.38;2.47;;;;;;;12.92;44.83;99975.19;4952480;29;20048;-50
2021/05/04 00:31:11;;;;;;;10.15;2.55;;;;;;;12.86;45.01;99984.59;4938072;29;20055;-51
2021/05/04 00:33:38;;;;;;;6.97;2.25;;;;;;;12.79;45.22;99977.63;4938125;29;20514;-51
2021/05/04 00:36:05;;;;;;;12.50;2.72;;;;;;;12.67;46.45;99976.47;4937582;29;20044;-50
2021/05/04 00:38:32;;;;;;;3.28;1.73;;;;;;;12.65;46.98;99967.75;4938850;29;20046;-55
2021/05/04 00:40:59;;;;;;;6.85;1.85;;;;;;;13.04;45.66;99975.47;4931425;29;20035;-55
2021/05/04 00:43:31;;;;;;;8.27;2.50;;;;;;;12.91;46.86;99973.53;4939452;29;20471;-54
2021/05/04 00:45:58;;;;;;;8.18;2.20;;;;;;;12.72;47.58;99943.56;4939611;29;20055;-52
2021/05/04 00:48:26;;;;;;;9.27;2.03;;;;;;;12.61;48.17;99964.03;4938150;29;20051;-51
2021/05/04 00:50:54;;;;;;;13.40;3.03;;;;;;;12.48;48.64;99958.25;4937393;29;20044;-49
2021/05/04 00:53:21;;;;;;;6.65;2.40;;;;;;;12.45;49.60;99953.38;4937528;29;20044;-50
2021/05/04 00:55:48;;;;;;;9.18;2.42;;;;;;;12.54;49.63;99959.75;4937429;29;20050;-51
2021/05/04 00:58:16;;;;;;;7.57;2.40;;;;;;;12.53;49.72;99951.84;4936480;29;20099;-50
2021/05/04 01:00:43;;;;;;;8.38;2.75;;;;;;;12.47;50.78;99947.63;4937679;29;20051;-52
2021/05/04 01:03:11;;;;;;;6.18;1.90;;;;;;;12.39;50.97;99940.09;4937369;29;20088;-52
2021/05/04 01:05:39;;;;;;;10.18;2.35;;;;;;;12.32;51.49;99938.59;4936805;29;20040;-52
2021/05/04 01:08:06;;;;;;;9.23;2.50;;;;;;;12.23;52.71;99929.47;4937165;29;20040;-51
2021/05/04 01:10:33;;;;;;;6.07;2.40;;;;;;;12.21;53.36;99934.41;4937226;29;20040;-50
2021/05/04 01:13:01;;;;;;;5.57;2.25;;;;;;;12.25;52.86;99918.25;4936967;29;20115;-50
2021/05/04 01:15:29;;;;;;;4.03;1.92;;;;;;;12.14;52.42;99917.63;4937062;29;20043;-51
2021/05/04 01:17:57;;;;;;;15.63;2.60;;;;;;;12.08;54.18;99919.63;4936632;29;20111;-51
2021/05/04 01:20:24;;;;;;;2.92;2.03;;;;;;;12.00;55.24;99911.31;4936775;29;20052;-50
2021/05/04 01:22:52;;;;;;;7.15;2.65;;;;;;;11.99;55.72;99901.50;4935978;29;20083;-50
2021/05/04 01:25:20;;;;;;;7.45;2.20;;;;;;;11.99;55.19;99896.84;4936767;29;20542;-51
2021/05/04 01:27:47;;;;;;;5.07;2.08;;;;;;;12.01;55.26;99891.09;4937059;29;20546;-52
2021/05/04 01:30:15;;;;;;;3.33;2.17;;;;;;;12.03;55.43;99872.50;4936993;29;20043;-51
2021/05/04 01:32:42;;;;;;;5.03;2.42;;;;;;;12.00;55.51;99859.44;4936623;29;20454;-51
2021/05/04 01:35:12;;;;;;;7.15;2.40;;;;;;;11.99;55.38;99872.28;4936445;29;20533;-52
2021/05/04 01:37:45;;;;;;;6.15;2.10;;;;;;;11.96;56.35;99881.09;4936586;29;20106;-50
2021/05/04 01:40:14;;;;;;;4.57;2.30;;;;;;;11.98;56.52;99867.13;4936439;29;20071;-51
2021/05/04 01:42:46;;;;;;;3.97;2.22;;;;;;;11.93;55.68;99863.41;4936733;29;20051;-51
2021/05/04 01:45:30;;;;;;;5.57;2.30;;;;;;;12.02;56.05;99852.56;4936341;29;20110;-50
2021/05/04 01:47:58;;;;;;;4.03;2.20;;;;;;;11.96;56.74;99861.97;4936368;29;20051;-50
2021/05/04 01:50:25;;;;;;;5.90;2.22;;;;;;;11.86;57.92;99854.75;4936179;29;20550;-51
2021/05/04 01:52:53;;;;;;;4.55;2.70;;;;;;;11.71;58.85;99855.00;4936197;29;20052;-51
2021/05/04 01:55:20;;;;;;;6.47;2.40;;;;;;;11.70;58.55;99851.47;4936436;29;20060;-51
2021/05/04 01:57:47;;;;;;;6.13;2.55;;;;;;;11.73;58.84;99850.06;4936356;29;20055;-51
2021/05/04 02:00:15;;;;;;;4.13;1.92;;;;;;;11.87;56.68;99864.56;4936658;29;20072;-51
2021/05/04 02:02:42;;;;;;;6.07;2.58;;;;;;;11.75;58.54;99849.78;4934355;29;20561;-51
2021/05/04 02:05:10;;;;;;;7.80;1.88;;;;;;;11.83;57.20;99830.75;4936140;29;20075;-51
2021/05/04 02:07:38;;;;;;;2.97;2.00;;;;;;;11.83;58.10;99819.84;4936121;29;20540;-51
2021/05/04 02:10:06;;;;;;;5.18;2.22;;;;;;;11.71;58.63;99822.25;4936079;29;20095;-50
2021/05/04 02:12:33;;;;;;;6.22;1.90;;;;;;;11.65;59.18;99826.19;4935303;29;20445;-51
2021/05/04 02:15:00;;;;;;;2.60;2.00;;;;;;;11.57;59.48;99805.03;4934818;29;20098;-52
2021/05/04 02:17:27;;;;;;;2.83;1.58;;;;;;;11.80;56.00;99804.09;4935366;29;20055;-50
2021/05/04 02:19:55;;;;;;;5.53;2.28;;;;;;;11.80;59.17;99793.16;4935768;29;20043;-52
2021/05/04 02:22:32;;;;;;;3.88;2.17;;;;;;;11.71;58.51;99794.97;4936055;29;20056;-53
2021/05/04 02:25:00;;;;;;;3.38;1.80;;;;;;;11.77;57.74;99793.78;4947327;29;20055;-50
2021/05/04 02:27:27;;;;;;;4.13;2.17;;;;;;;11.66;59.37;99782.22;4928441;29;20055;-57
2021/05/04 02:29:55;;;;;;;4.05;2.08;;;;;;;11.55;60.10;99771.81;4935760;29;20059;-54
2021/05/04 02:32:22;;;;;;;3.20;2.10;;;;;;;11.56;57.78;99765.25;4935382;29;20388;-53
2021/05/04 02:34:49;;;;;;;3.13;2.20;;;;;;;11.62;59.38;99753.16;4935325;29;20051;-52
2021/05/04 02:37:16;;;;;;;2.95;1.85;;;;;;;11.64;58.67;99743.53;4935676;29;20541;-52
2021/05/04 02:39:44;;;;;;;5.57;2.20;;;;;;;11.57;59.85;99739.56;4935101;29;20122;-53
2021/05/04 02:42:11;;;;;;;6.85;1.85;;;;;;;11.66;57.71;99733.09;4935635;29;20510;-54
2021/05/04 02:44:39;;;;;;;3.05;1.80;;;;;;;11.67;57.64;99723.03;4935560;29;20059;-54
2021/05/04 02:47:06;;;;;;;4.38;2.17;;;;;;;11.79;56.36;99714.34;4934819;29;20055;-52
2021/05/04 02:49:33;;;;;;;3.65;2.15;;;;;;;11.74;58.62;99707.06;4935164;29;20067;-53
2021/05/04 02:52:00;;;;;;;4.53;1.90;;;;;;;11.59;58.00;99704.63;4935265;29;20047;-49
2021/05/04 02:54:27;;;;;;;3.30;1.67;;;;;;;11.90;56.55;99694.72;4935380;29;20071;-50
2021/05/04 02:56:55;;;;;;;4.40;2.20;;;;;;;11.73;58.62;99705.44;4935667;29;20051;-51
2021/05/04 02:59:22;;;;;;;2.83;1.42;;;;;;;11.74;56.04;99696.16;4935296;29;20083;-50
2021/05/04 03:01:49;;;;;;;1.95;1.48;;;;;;;11.94;56.04;99690.28;4934678;29;20118;-52
2021/05/04 03:04:16;;;;;;;3.17;1.80;;;;;;;11.73;57.85;99686.31;4935005;29;20050;-51
2021/05/04 03:06:44;;;;;;;2.92;1.85;;;;;;;11.73;57.50;99672.69;4935394;29;20063;-51
2021/05/04 03:09:11;;;;;;;6.85;1.90;;;;;;;11.71;57.43;99669.44;4934883;29;20095;-53
2021/05/04 03:11:38;;;;;;;6.80;2.10;;;;;;;11.71;58.00;99667.56;4935040;29;20419;-50
2021/05/04 03:14:05;;;;;;;4.63;2.00;;;;;;;11.76;58.01;99663.91;4934546;29;20455;-53
2021/05/04 03:16:32;;;;;;;3.28;1.85;;;;;;;11.66;57.76;99653.19;4935178;29;20092;-53
2021/05/04 03:19:00;;;;;;;6.25;2.20;;;;;;;11.40;59.31;99648.25;4934693;29;20060;-50
2021/05/04 03:21:29;;;;;;;4.57;1.60;;;;;;;11.51;56.98;99640.66;4934575;29;20447;-51
2021/05/04 03:23:56;;;;;;;3.08;1.75;;;;;;;11.51;58.61;99646.91;4934384;29;20047;-50
2021/05/04 03:26:23;;;;;;;2.60;1.77;;;;;;;11.45;59.26;99625.53;4935031;29;20048;-51
2021/05/04 03:28:50;;;;;;;5.30;2.83;;;;;;;11.46;58.80;99641.56;4934759;29;20107;-51
2021/05/04 03:31:17;;;;;;;3.22;1.83;;;;;;;11.61;58.98;99635.00;4934866;29;20051;-53
2021/05/04 03:33:44;;;;;;;3.45;2.00;;;;;;;11.58;57.70;99616.50;4935109;29;20059;-50
2021/05/04 03:36:12;;;;;;;3.28;1.85;;;;;;;11.71;58.94;99609.41;4934915;29;20430;-51
2021/05/04 03:38:39;;;;;;;2.30;1.42;;;;;;;11.71;57.13;99604.78;4934927;29;20095;-49
2021/05/04 03:41:06;;;;;;;2.92;1.58;;;;;;;11.62;57.95;99611.28;4933287;29;20047;-51
2021/05/04 03:43:33;;;;;;;3.60;2.35;;;;;;;11.61;59.08;99604.19;4934248;29;20110;-51
2021/05/04 03:46:00;;;;;;;3.50;2.05;;;;;;;11.48;59.72;99605.81;4933885;29;20054;-51
2021/05/04 03:48:27;;;;;;;5.22;2.08;;;;;;;11.32;60.81;99602.56;4934322;29;20161;-52
2021/05/04 03:50:55;;;;;;;2.30;1.33;;;;;;;11.42;58.81;99569.63;4934814;29;20091;-52
2021/05/04 03:53:22;;;;;;;4.72;1.88;;;;;;;11.66;59.13;99566.69;4934805;29;20052;-51
2021/05/04 03:55:49;;;;;;;5.43;1.55;;;;;;;11.79;57.00;99556.06;4934709;29;20134;-51
2021/05/04 03:58:16;;;;;;;2.97;1.85;;;;;;;11.66;56.71;99555.75;4934197;29;20047;-51
2021/05/04 04:00:44;;;;;;;3.38;2.05;;;;;;;11.56;58.56;99547.00;4934746;29;20396;-51
2021/05/04 04:03:11;;;;;;;1.85;1.38;;;;;;;11.55;57.65;99557.13;4934717;29;20044;-52
2021/05/04 04:05:38;;;;;;;2.65;1.85;;;;;;;11.78;56.77;99565.34;4934482;29;20044;-50
2021/05/04 04:08:05;;;;;;;2.50;1.80;;;;;;;11.61;58.81;99563.25;4934453;29;20047;-51
2021/05/04 04:10:32;;;;;;;3.30;1.98;;;;;;;11.37;60.19;99561.56;4934495;29;20090;-53
2021/05/04 04:12:59;;;;;;;1.67;1.55;;;;;;;11.50;59.64;99554.50;4934224;29;20048;-50
2021/05/04 04:15:27;;;;;;;2.80;1.45;;;;;;;11.38;59.21;99544.09;4934213;29;20063;-50
2021/05/04 04:17:54;;;;;;;4.78;2.17;;;;;;;11.46;60.56;99537.13;4933990;29;20102;-52
2021/05/04 04:20:21;;;;;;;3.33;1.80;;;;;;;11.36;60.66;99531.88;4934735;29;20122;-51
2021/05/04 04:22:48;;;;;;;4.47;2.00;;;;;;;11.24;60.51;99535.13;4934426;29;20067;-52
2021/05/04 04:25:15;;;;;;;3.20;1.30;;;;;;;11.26;59.37;99522.00;4934616;29;20047;-53
2021/05/04 04:27:42;;;;;;;3.05;1.90;;;;;;;11.37;59.99;99536.22;4933946;29;20066;-50
2021/05/04 04:30:10;;;;;;;5.47;1.73;;;;;;;11.38;59.06;99525.00;4934256;29;20039;-49
2021/05/04 04:32:37;;;;;;;3.10;1.92;;;;;;;11.25;60.65;99542.19;4934316;29;20043;-51
2021/05/04 04:35:05;;;;;;;2.75;1.70;;;;;;;11.13;62.30;99530.97;4934326;29;20075;-51
2021/05/04 04:37:32;;;;;;;2.70;1.90;;;;;;;10.99;62.30;99518.19;4937896;29;20047;-52
2021/05/04 04:39:59;;;;;;;2.80;1.45;;;;;;;11.05;61.10;99511.50;4936377;29;20047;-52
2021/05/04 04:42:26;;;;;;;3.97;1.40;;;;;;;11.21;60.64;99524.84;4937214;29;20075;-54
2021/05/04 04:44:53;;;;;;;4.63;2.00;;;;;;;11.12;60.64;99522.00;4937840;29;20095;-52
2021/05/04 04:47:21;;;;;;;6.10;2.55;;;;;;;11.21;60.73;99509.28;4937720;29;20043;-54
2021/05/04 04:49:48;;;;;;;7.47;1.50;;;;;;;11.35;59.20;99490.16;4937571;29;20382;-51
2021/05/04 04:52:16;;;;;;;1.58;1.48;;;;;;;11.48;58.53;99486.59;4937596;29;20043;-51
2021/05/04 04:54:43;;;;;;;3.40;1.83;;;;;;;11.43;59.49;99492.19;4937564;29;20047;-51
2021/05/04 04:57:10;;;;;;;5.47;1.70;;;;;;;11.20;60.78;99491.28;4937167;29;20058;-48
2021/05/04 04:59:38;;;;;;;1.63;1.23;;;;;;;11.14;59.96;99499.91;4937397;29;20483;-51
2021/05/04 05:02:05;;;;;;;2.17;1.27;;;;;;;11.12;59.94;99499.41;4937324;29;20056;-51
2021/05/04 05:04:32;;;;;;;6.13;1.80;;;;;;;11.03;60.84;99513.72;4937316;29;20071;-52
2021/05/04 05:07:05;;;;;;;2.22;1.95;;;;;;;10.95;62.19;99506.25;4937247;29;20047;-50
2021/05/04 05:09:35;;;;;;;4.38;1.80;;;;;;;10.83;62.80;99511.41;4936436;29;20059;-51
2021/05/04 05:12:06;;;;;;;2.05;1.30;;;;;;;10.81;61.75;99500.81;4937921;29;20507;-53
2021/05/04 05:14:35;;;;;;;2.85;1.60;;;;;;;10.82;62.54;99513.31;4937899;29;20050;-53
2021/05/04 05:17:03;;;;;;;6.07;2.00;;;;;;;10.96;61.16;99507.06;4938303;29;20123;-53
2021/05/04 05:19:30;;;;;;;2.97;1.77;;;;;;;10.87;62.96;99509.66;4937293;29;20415;-55
2021/05/04 05:21:59;;;;;;;6.30;2.33;;;;;;;11.03;61.89;99508.25;4937514;29;20054;-53
2021/05/04 05:24:26;;;;;;;4.03;1.27;;;;;;;11.03;62.32;99500.09;4935781;29;20051;-53
2021/05/04 05:26:53;;;;;;;3.63;1.90;;;;;;;11.28;62.62;99492.50;4936509;29;20048;-52
2021/05/04 05:29:20;;;;;;;6.50;1.90;;;;;;;11.27;62.64;99493.63;4937015;29;20140;-52
2021/05/04 05:31:48;;;;;;;3.92;1.45;;;;;;;11.44;62.10;99480.13;4936761;29;20488;-52
2021/05/04 05:34:15;;;;;;;2.40;1.52;;;;;;;11.40;61.39;99487.34;4936682;29;20047;-53
2021/05/04 05:36:42;;;;;;;4.95;1.35;;;;;;;11.30;60.30;99480.19;4936332;29;20120;-50
2021/05/04 05:39:09;;;;;;;3.55;1.20;;;;;;;11.35;61.47;99497.53;4936460;29;20054;-54
2021/05/04 05:41:36;;;;;;;1.50;1.23;;;;;;;11.43;61.28;99483.19;4935797;29;20110;-52
2021/05/04 05:44:05;;;;;;;3.13;1.42;;;;;;;11.35;61.51;99481.16;4936432;29;20050;-51
2021/05/04 05:46:32;;;;;;;1.73;1.15;;;;;;;11.59;60.41;99470.00;4922149;29;20591;-52
2021/05/04 05:49:00;;;;;;;3.05;1.50;;;;;;;11.46;61.83;99480.66;4935993;29;20495;-52
2021/05/04 05:51:28;;;;;;;1.55;1.25;;;;;;;11.50;61.75;99476.19;4936425;29;20099;-51
2021/05/04 05:53:55;;;;;;;1.98;1.38;;;;;;;11.33;62.86;99467.88;4935756;29;20058;-52
2021/05/04 05:56:22;;;;;;;2.28;1.42;;;;;;;11.24;63.37;99469.69;4935283;29;20507;-52
2021/05/04 05:58:50;;;;;;;3.30;1.48;;;;;;;10.96;64.56;99466.19;4936146;29;20055;-51
2021/05/04 06:01:17;;;;;;;1.77;1.25;;;;;;;11.33;62.14;99461.56;4936373;29;20071;-50
2021/05/04 06:03:44;;;;;;;6.78;2.33;;;;;;;11.23;63.19;99462.59;4936677;29;20079;-54
2021/05/04 06:06:12;;;;;;;3.10;1.33;;;;;;;11.14;61.92;99450.84;4936078;29;20039;-51
2021/05/04 06:08:39;;;;;;;2.10;1.52;;;;;;;11.40;62.31;99446.44;4935612;29;20051;-50
2021/05/04 06:11:06;;;;;;;1.15;1.05;;;;;;;11.24;62.41;99458.78;4935643;29;20071;-52
2021/05/04 06:13:33;;;;;;;2.08;1.45;;;;;;;11.08;63.62;99461.03;4935821;29;20063;-55
2021/05/04 06:16:00;;;;;;;2.13;1.20;;;;;;;11.40;60.55;99467.41;4935685;29;20043;-53
2021/05/04 06:18:27;;;;;;;6.38;2.25;;;;;;;11.25;62.75;99458.47;4935442;29;20052;-52
2021/05/04 06:20:54;;;;;;;2.90;1.40;;;;;;;11.46;60.70;99461.56;4935675;29;20044;-51
2021/05/04 06:23:22;;;;;;;3.33;1.83;;;;;;;11.20;63.22;99464.03;4935139;29;20063;-52
2021/05/04 06:25:49;;;;;;;5.82;1.77;;;;;;;11.19;63.17;99467.06;4935401;29;20495;-51
2021/05/04 06:28:16;;;;;;;4.10;1.83;;;;;;;11.04;63.59;99449.94;4935719;29;20502;-52
2021/05/04 06:30:43;;;;;;;3.45;2.03;;;;;;;10.86;63.73;99451.66;4935533;29;20558;-49
2021/05/04 06:33:13;;;;;;;4.30;1.27;;;;;;;11.07;61.80;99443.88;4935821;29;20047;-52
2021/05/04 06:35:42;;;;;;;5.47;1.88;;;;;;;11.20;62.63;99446.88;4936141;29;20035;-50
2021/05/04 06:38:14;;;;;;;5.88;1.98;;;;;;;10.90;64.25;99464.69;4935231;29;20059;-52
2021/05/04 06:40:42;;;;;;;8.05;2.60;;;;;;;10.83;64.88;99470.53;4935161;29;20426;-50
2021/05/04 06:43:10;;;;;;;4.90;1.95;;;;;;;11.13;62.17;99446.47;4251183;28;10000811;-52
2021/05/04 06:45:38;;;;;;;6.25;1.75;;;;;;;11.13;64.00;99463.63;4933343;29;20040;-51
2021/05/04 06:48:06;;;;;;;4.90;1.88;;;;;;;11.32;62.90;99463.50;4933319;29;20098;-53
2021/05/04 06:50:33;;;;;;;6.13;2.15;;;;;;;11.23;64.08;99470.78;4933053;29;20454;-51
2021/05/04 06:53:00;;;;;;;4.97;1.90;;;;;;;11.07;64.51;99471.13;4932545;29;20051;-51
2021/05/04 06:55:28;;;;;;;6.97;2.47;;;;;;;10.94;65.40;99465.69;4932682;29;20454;-50
2021/05/04 06:57:55;;;;;;;6.05;2.00;;;;;;;10.83;65.17;99470.53;4933297;29;20075;-52
2021/05/04 07:00:22;;;;;;;9.20;2.55;;;;;;;10.58;66.01;99475.38;4933352;29;20047;-51
2021/05/04 07:02:49;;;;;;;7.75;2.83;;;;;;;10.52;66.36;99475.75;4932957;29;20047;-52
2021/05/04 07:05:17;;;;;;;7.20;2.45;;;;;;;10.68;65.92;99470.81;4932919;29;20063;-52
2021/05/04 07:07:44;;;;;;;6.60;2.15;;;;;;;10.91;64.26;99456.19;4932488;29;20438;-53
2021/05/04 07:10:11;;;;;;;7.60;2.55;;;;;;;10.83;65.15;99465.09;4932931;29;20040;-51
2021/05/04 07:12:39;;;;;;;5.22;1.45;;;;;;;10.84;64.06;99461.25;4931797;29;20110;-52
2021/05/04 07:15:07;;;;;;;5.40;2.20;;;;;;;10.78;64.81;99457.00;4933017;29;20067;-50
2021/05/04 07:17:34;;;;;;;4.32;2.03;;;;;;;10.78;64.18;99470.63;4932332;29;20070;-51
2021/05/04 07:20:02;;;;;;;4.53;1.95;;;;;;;10.73;64.91;99449.75;4932760;29;20059;-51
2021/05/04 07:22:30;;;;;;;4.13;1.77;;;;;;;10.96;63.68;99458.81;4932098;29;20051;-51
2021/05/04 07:24:57;;;;;;;6.93;2.28;;;;;;;10.87;65.05;99441.56;4932754;29;20050;-52
2021/05/04 07:27:24;;;;;;;5.75;1.92;;;;;;;10.86;64.91;99453.56;4927868;29;20047;-52
2021/05/04 07:29:51;;;;;;;6.82;2.35;;;;;;;10.76;66.02;99459.22;4931147;29;20043;-51
2021/05/04 07:32:19;;;;;;;4.45;2.15;;;;;;;10.69;66.31;99456.09;4932381;29;20051;-55
2021/05/04 07:34:49;;;;;;;5.60;2.45;;;;;;;10.65;66.39;99447.72;4932152;29;20256;-56
2021/05/04 07:37:17;;;;;;;6.75;2.70;;;;;;;10.65;66.22;99454.00;4933838;29;20043;-64
2021/05/04 07:39:45;;;;;;;7.35;2.33;;;;;;;10.64;66.43;99457.81;4933115;29;20051;-53
2021/05/04 07:42:12;;;;;;;5.93;1.77;;;;;;;10.94;64.84;99455.56;4931912;29;20302;-55
2021/05/04 07:44:41;;;;;;;9.27;2.65;;;;;;;10.98;65.40;99459.31;4933745;29;20051;-51
2021/05/04 07:47:08;;;;;;;8.48;2.95;;;;;;;10.99;64.99;99449.22;4932273;29;20040;-50
2021/05/04 07:49:47;;;;;;;11.60;3.20;;;;;;;11.17;64.28;99461.91;4940237;29;20048;-54
2021/05/04 07:52:15;;;;;;;23.75;5.25;;;;;;;11.06;62.72;99463.25;4950381;28;20102;-53
2021/05/04 07:54:44;;;;;;;12.02;3.55;;;;;;;11.07;65.23;99452.03;4932379;29;20044;-50
2021/05/04 07:57:12;;;;;;;12.77;3.45;;;;;;;11.00;65.45;99461.75;4931970;29;20054;-54
2021/05/04 07:59:39;;;;;;;16.92;4.47;;;;;;;11.00;64.74;99450.84;4932644;29;20060;-52
2021/05/04 08:02:06;;;;;;;15.20;4.30;;;;;;;10.97;64.81;99443.28;4931919;29;20130;-52
2021/05/04 08:04:34;;;;;;;18.73;4.60;;;;;;;11.20;64.30;99452.31;4931373;29;20044;-51
2021/05/04 08:07:04;;;;;;;12.80;3.97;;;;;;;11.12;64.82;99453.06;4932066;29;20079;-51
2021/05/04 08:09:31;;;;;;;15.20;4.53;;;;;;;11.10;64.83;99453.34;4933037;29;20075;-51
2021/05/04 08:11:58;;;;;;;26.52;6.25;;;;;;;11.22;63.31;99444.66;4936813;29;20052;-53
2021/05/04 08:14:25;;;;;;;12.02;3.92;;;;;;;11.12;65.37;99450.31;4937670;29;20459;-53
2021/05/04 08:16:54;;;;;;;13.50;3.72;;;;;;;10.95;66.18;99440.84;4937851;29;20062;-50
2021/05/04 08:19:22;;;;;;;16.65;5.07;;;;;;;11.00;65.32;99438.03;4936969;29;20083;-50
2021/05/04 08:21:50;;;;;;;19.30;4.93;;;;;;;11.02;65.01;99445.91;4937457;29;20114;-53
2021/05/04 08:24:17;;;;;;;15.00;4.70;;;;;;;10.99;65.39;99433.69;4937598;29;20471;-51
2021/05/04 08:26:45;;;;;;;15.32;4.60;;;;;;;11.09;65.36;99424.50;4937195;29;20035;-53
2021/05/04 08:29:12;;;;;;;19.13;4.75;;;;;;;10.92;65.55;99430.56;4937871;29;20036;-51
2021/05/04 08:31:40;;;;;;;12.18;3.50;;;;;;;10.74;67.05;99439.66;4937533;29;20649;-52
2021/05/04 08:34:10;;;;;;;8.75;3.33;;;;;;;10.68;66.48;99440.84;4937402;29;20383;-50
2021/05/04 08:36:37;;;;;;;23.48;6.70;;;;;;;10.81;65.71;99437.34;4936936;29;20052;-53
2021/05/04 08:39:06;;;;;;;17.23;5.15;;;;;;;10.77;65.19;99477.19;4937525;29;20039;-50
2021/05/04 08:41:36;;;;;;;9.45;2.97;;;;;;;10.49;66.99;99463.56;4937487;29;20057;-52
2021/05/04 08:44:04;;;;;;;6.95;2.08;;;;;;;10.29;68.13;99466.63;4937752;29;20071;-51
2021/05/04 08:46:36;;;;;;;7.80;2.83;;;;;;;10.20;67.48;99466.50;4937244;29;20107;-52
2021/05/04 08:49:04;;;;;;;5.07;2.10;;;;;;;10.15;67.43;99472.84;4937236;29;20040;-52
2021/05/04 08:51:33;;;;;;;14.57;4.25;;;;;;;10.18;67.06;99466.00;4937706;29;20043;-52
2021/05/04 08:54:03;;;;;;;12.35;4.47;;;;;;;10.18;66.50;99455.91;4937448;29;20052;-50
2021/05/04 08:56:30;;;;;;;17.42;5.35;;;;;;;10.33;66.63;99457.56;4937418;29;20443;-51
2021/05/04 08:58:57;;;;;;;9.48;2.63;;;;;;;10.49;67.61;99439.03;4935927;29;20052;-53
2021/05/04 09:01:25;;;;;;;8.40;2.92;;;;;;;10.64;68.03;99436.00;4937227;29;20103;-50
2021/05/04 09:03:57;;;;;;;13.95;4.57;;;;;;;10.81;68.26;99440.06;4937064;29;20052;-52
2021/05/04 09:06:38;;;;;;;11.98;3.72;;;;;;;10.87;68.01;99428.75;4937603;29;20062;-51
2021/05/04 09:09:29;;;;;;;18.38;5.28;;;;;;;10.85;64.90;99424.72;4937065;29;20051;-52
2021/05/04 09:17:22;;;;;;;15.65;4.70;;;;;;;11.02;64.57;99441.25;4936971;29;20055;-52
2021/05/04 09:23:05;;;;;;;9.73;3.33;;;;;;;11.13;64.28;99427.41;4936630;29;20084;-51
2021/05/04 09:25:37;;;;;;;9.20;3.13;;;;;;;11.07;64.02;99437.63;4936915;29;20522;-52
2021/05/04 09:28:10;;;;;;;12.38;3.75;;;;;;;11.20;63.68;99435.97;4935595;29;20031;-49
2021/05/04 09:30:37;;;;;;;13.55;4.93;;;;;;;11.13;64.89;99441.03;4936915;29;20403;-49
2021/05/04 09:33:15;;;;;;;11.90;3.42;;;;;;;11.27;65.09;99439.88;4936383;29;20455;-48
2021/05/04 09:35:42;;;;;;;16.33;4.72;;;;;;;11.23;65.72;99440.78;4936528;29;20051;-50
2021/05/04 09:38:12;;;;;;;12.05;3.83;;;;;;;11.20;64.24;99438.69;4936718;29;20487;-51
2021/05/04 09:40:41;;;;;;;15.80;4.93;;;;;;;11.22;64.20;99428.28;4936795;29;20077;-50
2021/05/04 09:43:27;;;;;;;14.57;4.95;;;;;;;11.51;64.21;99428.69;4936160;29;20040;-51
2021/05/04 09:45:56;;;;;;;11.40;3.17;;;;;;;11.43;64.15;99424.00;4935453;29;20067;-54
2021/05/04 09:48:37;;;;;;;13.40;4.30;;;;;;;11.38;64.82;99421.38;4936477;29;20511;-54
2021/05/04 09:51:06;;;;;;;11.60;3.60;;;;;;;11.27;64.09;99444.53;4923805;29;20043;-52
2021/05/04 09:56:14;;;;;;;12.13;3.55;;;;;;;11.28;63.83;99455.16;4936497;29;20036;-52
2021/05/04 09:58:42;;;;;;;10.65;3.25;;;;;;;11.17;63.96;99464.66;4936616;29;20044;-51
2021/05/04 10:01:16;;;;;;;14.20;3.95;;;;;;;11.09;64.75;99474.34;4922330;29;20042;-49
2021/05/04 10:03:45;;;;;;;9.73;3.10;;;;;;;11.25;63.66;99474.03;4935823;29;20427;-53
2021/05/04 10:06:15;;;;;;;11.48;3.60;;;;;;;11.21;63.89;99475.75;4935916;29;20039;-50
2021/05/04 10:08:43;;;;;;;12.30;3.40;;;;;;;11.13;64.71;99501.00;4936453;29;20051;-51
2021/05/04 10:11:17;;;;;;;12.48;3.90;;;;;;;10.99;64.94;99511.91;4934344;29;20056;-50
2021/05/04 10:13:45;;;;;;;12.77;3.38;;;;;;;10.71;67.16;99508.38;4936214;29;20047;-48
2021/05/04 10:16:12;;;;;;;14.15;3.35;;;;;;;10.59;66.02;99509.66;4934140;29;20399;-46
2021/05/04 10:18:40;;;;;;;12.15;3.22;;;;;;;10.38;66.42;99516.56;4935535;29;20055;-48
2021/05/04 10:21:08;;;;;;;10.73;3.05;;;;;;;10.23;67.01;99542.91;4950523;29;20574;-50
2021/05/04 10:23:38;;;;;;;14.77;3.70;;;;;;;10.19;67.07;99522.81;4935884;29;20075;-49
2021/05/04 10:26:14;;;;;;;10.90;3.60;;;;;;;10.30;65.40;99509.09;4935892;29;20112;-51
2021/05/04 10:29:00;;;;;;;8.88;2.42;;;;;;;10.52;62.53;99522.84;4935055;29;20121;-51
2021/05/04 10:31:35;;;;;;;9.13;2.92;;;;;;;10.75;62.56;99531.16;4934045;29;20051;-53
2021/05/04 10:34:24;;;;;;;11.85;3.35;;;;;;;10.94;59.81;99517.44;4935428;29;20056;-51
2021/05/04 10:36:53;;;;;;;17.85;5.53;;;;;;;11.13;59.22;99528.25;4935797;29;20042;-52
2021/05/04 10:39:42;;;;;;;19.10;5.20;;;;;;;11.06;57.08;99556.75;4935227;29;20491;-50
2021/05/04 10:42:12;;;;;;;8.68;2.63;;;;;;;11.03;58.06;99573.69;4923326;29;20043;-53
2021/05/04 10:44:57;;;;;;;8.27;2.58;;;;;;;10.95;59.63;99581.75;4935185;29;20059;-52
2021/05/04 10:47:43;;;;;;;15.25;4.75;;;;;;;10.82;63.01;99602.41;4924609;29;20067;-49
2021/05/04 10:50:15;;;;;;;11.10;2.70;;;;;;;10.73;62.46;99601.50;4935439;29;20071;-50
2021/05/04 10:53:03;;;;;;;9.02;2.78;;;;;;;10.56;63.61;99602.88;4936967;29;20566;-51
2021/05/04 10:55:52;;;;;;;12.93;4.05;;;;;;;10.68;63.65;99607.03;4935002;29;20046;-49
2021/05/04 10:58:20;;;;;;;18.83;5.13;;;;;;;10.60;64.33;99614.75;4588866;28;9999896;-52
2021/05/04 11:00:52;;;;;;;8.70;2.50;;;;;;;10.38;64.71;99636.38;4933905;29;20054;-53
2021/05/04 11:03:34;;;;;;;8.82;2.67;;;;;;;10.32;65.38;99629.38;4933587;29;20058;-50
2021/05/04 11:06:02;;;;;;;12.95;4.22;;;;;;;10.44;64.23;99640.66;4933764;29;20091;-51
2021/05/04 11:08:55;;;;;;;5.05;2.38;;;;;;;10.39;63.07;99637.97;4933697;29;20047;-52
2021/05/04 11:11:35;;;;;;;15.13;4.78;;;;;;;10.37;65.30;99621.97;4932800;29;20055;-52
2021/05/04 11:14:07;;;;;;;11.15;3.33;;;;;;;10.44;63.32;99637.94;4931468;29;20036;-54
2021/05/04 11:16:36;;;;;;;7.90;2.50;;;;;;;10.29;63.86;99644.38;4932927;29;20144;-53
2021/05/04 11:19:18;;;;;;;6.28;2.40;;;;;;;10.20;65.28;99644.22;4932631;29;20074;-52
2021/05/04 11:21:50;;;;;;;8.27;2.47;;;;;;;10.10;64.56;99649.84;4924947;29;20044;-51
2021/05/04 11:24:20;;;;;;;9.93;2.55;;;;;;;10.12;64.61;99653.03;4932493;29;20090;-50
2021/05/04 11:26:50;;;;;;;6.20;2.45;;;;;;;10.14;64.75;99659.00;4933033;29;20051;-49
2021/05/04 11:29:38;;;;;;;8.73;2.88;;;;;;;10.17;65.51;99655.72;4932438;29;20036;-52
2021/05/04 11:32:10;;;;;;;7.72;2.38;;;;;;;10.18;64.48;99653.81;4927535;29;20050;-51
2021/05/04 11:34:39;;;;;;;11.63;2.70;;;;;;;10.19;65.39;99675.25;4931872;29;20048;-51
2021/05/04 11:37:36;;;;;;;8.43;2.50;;;;;;;10.14;63.71;99667.16;4932693;29;20039;-52
2021/05/04 11:40:05;;;;;;;8.00;2.38;;;;;;;9.90;63.22;99686.25;4932159;29;20238;-52
2021/05/04 11:42:39;;;;;;;6.95;2.08;;;;;;;9.80;63.46;99680.97;4931851;29;20521;-51
2021/05/04 11:45:10;;;;;;;5.03;2.03;;;;;;;9.92;64.82;99664.22;4931968;29;20509;-51
2021/05/04 11:48:03;;;;;;;9.18;2.63;;;;;;;9.91;63.54;99682.47;4936513;29;20071;-51
2021/05/04 11:50:32;;;;;;;11.25;3.50;;;;;;;10.14;63.68;99674.53;4931476;29;20052;-51
2021/05/04 11:53:11;;;;;;;5.90;2.50;;;;;;;10.01;60.58;99689.69;4936599;29;20071;-51